sensor_id;sensor_type;location;lat;lon;timestamp;pressure;altitude;pressure_sealevel;temperature;humidity
60417;BME280;46263;44.726;10.396;2022-08-02T00:01:45;100042.41;;;26.57;44.90
60417;BME280;46263;44.726;10.396;2022-08-02T00:04:10;100032.94;;;26.34;45.62
60417;BME280;46263;44.726;10.396;2022-08-02T00:06:36;100033.53;;;26.39;45.73
60417;BME280;46263;44.726;10.396;2022-08-02T00:09:02;100032.06;;;26.42;46.03
60417;BME280;46263;44.726;10.396;2022-08-02T00:11:28;100030.00;;;26.51;46.00
60417;BME280;46263;44.726;10.396;2022-08-02T00:13:53;100031.75;;;26.55;46.32
60417;BME280;46263;44.726;10.396;2022-08-02T00:16:18;100042.31;;;26.53;47.40
60417;BME280;46263;44.726;10.396;2022-08-02T00:18:43;100041.94;;;26.43;47.78
60417;BME280;46263;44.726;10.396;2022-08-02T00:21:09;100049.81;;;26.32;48.19
60417;BME280;46263;44.726;10.396;2022-08-02T00:23:34;100046.25;;;26.32;47.76
60417;BME280;46263;44.726;10.396;2022-08-02T00:26:00;100053.13;;;26.26;47.10
60417;BME280;46263;44.726;10.396;2022-08-02T00:28:25;100047.50;;;26.01;47.01
60417;BME280;46263;44.726;10.396;2022-08-02T00:30:50;100046.75;;;26.13;46.90
60417;BME280;46263;44.726;10.396;2022-08-02T00:33:16;100050.72;;;26.03;47.53
60417;BME280;46263;44.726;10.396;2022-08-02T00:35:41;100058.34;;;25.85;48.08
60417;BME280;46263;44.726;10.396;2022-08-02T00:38:06;100070.63;;;25.88;48.22
60417;BME280;46263;44.726;10.396;2022-08-02T00:40:32;100077.88;;;25.72;48.60
60417;BME280;46263;44.726;10.396;2022-08-02T00:43:01;100083.72;;;25.70;47.11
60417;BME280;46263;44.726;10.396;2022-08-02T00:45:29;100079.69;;;25.88;46.87
60417;BME280;46263;44.726;10.396;2022-08-02T00:47:54;100085.56;;;25.99;48.12
60417;BME280;46263;44.726;10.396;2022-08-02T00:50:19;100083.44;;;26.05;46.98
60417;BME280;46263;44.726;10.396;2022-08-02T00:52:44;100099.81;;;26.01;44.01
60417;BME280;46263;44.726;10.396;2022-08-02T00:55:10;100109.66;;;25.61;47.17
60417;BME280;46263;44.726;10.396;2022-08-02T00:57:35;100101.09;;;25.62;50.07
60417;BME280;46263;44.726;10.396;2022-08-02T01:00:00;100104.69;;;25.54;51.41
60417;BME280;46263;44.726;10.396;2022-08-02T01:02:26;100106.44;;;25.38;52.06
60417;BME280;46263;44.726;10.396;2022-08-02T01:04:51;100116.34;;;25.51;52.06
60417;BME280;46263;44.726;10.396;2022-08-02T01:07:16;100120.06;;;25.26;53.63
60417;BME280;46263;44.726;10.396;2022-08-02T01:09:43;100110.63;;;25.35;54.31
60417;BME280;46263;44.726;10.396;2022-08-02T01:12:09;100119.25;;;25.25;55.37
60417;BME280;46263;44.726;10.396;2022-08-02T01:14:34;100113.53;;;25.39;55.21
60417;BME280;46263;44.726;10.396;2022-08-02T01:17:07;100111.00;;;25.25;56.54
60417;BME280;46263;44.726;10.396;2022-08-02T01:24:54;100116.00;;;24.85;57.88
60417;BME280;46263;44.726;10.396;2022-08-02T01:27:30;100116.78;;;25.03;57.97
60417;BME280;46263;44.726;10.396;2022-08-02T01:29:58;100122.13;;;24.99;57.32
60417;BME280;46263;44.726;10.396;2022-08-02T01:32:25;100119.78;;;24.72;57.29
60417;BME280;46263;44.726;10.396;2022-08-02T01:34:59;100122.94;;;25.00;57.07
60417;BME280;46263;44.726;10.396;2022-08-02T01:38:03;100122.84;;;25.17;56.87
60417;BME280;46263;44.726;10.396;2022-08-02T01:40:22;100128.41;;;25.08;57.18
60417;BME280;46263;44.726;10.396;2022-08-02T01:42:50;100123.91;;;24.86;59.54
60417;BME280;46263;44.726;10.396;2022-08-02T01:45:17;100127.72;;;24.65;61.51
60417;BME280;46263;44.726;10.396;2022-08-02T01:47:43;100129.16;;;24.62;63.82
60417;BME280;46263;44.726;10.396;2022-08-02T01:50:10;100127.41;;;24.57;65.40
60417;BME280;46263;44.726;10.396;2022-08-02T01:52:38;100124.38;;;24.50;66.04
60417;BME280;46263;44.726;10.396;2022-08-02T01:57:44;100137.78;;;24.43;69.14
60417;BME280;46263;44.726;10.396;2022-08-02T02:00:10;100142.31;;;24.31;71.96
60417;BME280;46263;44.726;10.396;2022-08-02T02:02:37;100137.47;;;24.36;71.95
60417;BME280;46263;44.726;10.396;2022-08-02T02:05:05;100137.78;;;24.52;72.12
60417;BME280;46263;44.726;10.396;2022-08-02T02:07:35;100141.78;;;24.63;72.49
60417;BME280;46263;44.726;10.396;2022-08-02T02:10:02;100146.13;;;24.64;73.55
60417;BME280;46263;44.726;10.396;2022-08-02T02:12:28;100148.09;;;24.55;75.05
60417;BME280;46263;44.726;10.396;2022-08-02T02:14:55;100145.16;;;24.60;75.28
60417;BME280;46263;44.726;10.396;2022-08-02T02:17:21;100144.88;;;24.44;77.38
60417;BME280;46263;44.726;10.396;2022-08-02T02:19:48;100154.38;;;24.55;76.25
60417;BME280;46263;44.726;10.396;2022-08-02T02:22:15;100149.53;;;24.70;75.42
60417;BME280;46263;44.726;10.396;2022-08-02T02:24:40;100148.72;;;24.69;74.15
60417;BME280;46263;44.726;10.396;2022-08-02T02:27:06;100147.56;;;24.70;74.40
60417;BME280;46263;44.726;10.396;2022-08-02T02:29:33;100143.69;;;24.71;74.83
60417;BME280;46263;44.726;10.396;2022-08-02T02:31:59;100146.78;;;24.61;74.67
60417;BME280;46263;44.726;10.396;2022-08-02T02:34:32;100145.81;;;24.66;74.04
60417;BME280;46263;44.726;10.396;2022-08-02T02:37:00;100151.13;;;24.71;73.25
60417;BME280;46263;44.726;10.396;2022-08-02T02:39:26;100155.19;;;24.65;74.90
60417;BME280;46263;44.726;10.396;2022-08-02T02:41:52;100158.25;;;24.63;74.75
60417;BME280;46263;44.726;10.396;2022-08-02T02:44:19;100163.31;;;24.52;75.74
60417;BME280;46263;44.726;10.396;2022-08-02T02:46:45;100162.97;;;24.45;75.61
60417;BME280;46263;44.726;10.396;2022-08-02T02:49:12;100175.56;;;24.55;76.01
60417;BME280;46263;44.726;10.396;2022-08-02T02:51:39;100171.84;;;24.60;75.03
60417;BME280;46263;44.726;10.396;2022-08-02T02:54:04;100180.72;;;24.74;74.13
60417;BME280;46263;44.726;10.396;2022-08-02T02:56:30;100180.97;;;24.89;72.59
60417;BME280;46263;44.726;10.396;2022-08-02T02:58:56;100191.53;;;24.79;73.25
60417;BME280;46263;44.726;10.396;2022-08-02T03:01:21;100189.16;;;24.51;76.79
60417;BME280;46263;44.726;10.396;2022-08-02T03:03:55;100192.56;;;24.48;76.87
60417;BME280;46263;44.726;10.396;2022-08-02T03:06:21;100200.63;;;24.53;77.51
60417;BME280;46263;44.726;10.396;2022-08-02T03:08:46;100202.88;;;24.51;78.19
60417;BME280;46263;44.726;10.396;2022-08-02T03:11:11;100207.38;;;24.56;79.43
60417;BME280;46263;44.726;10.396;2022-08-02T03:13:37;100208.06;;;24.53;80.56
60417;BME280;46263;44.726;10.396;2022-08-02T03:16:03;100207.25;;;24.44;82.82
60417;BME280;46263;44.726;10.396;2022-08-02T03:18:29;100216.63;;;24.51;84.38
60417;BME280;46263;44.726;10.396;2022-08-02T03:21:01;100215.66;;;24.47;86.22
60417;BME280;46263;44.726;10.396;2022-08-02T03:23:27;100209.69;;;24.54;87.22
60417;BME280;46263;44.726;10.396;2022-08-02T03:25:52;100215.81;;;24.42;90.90
60417;BME280;46263;44.726;10.396;2022-08-02T03:28:17;100217.91;;;24.45;91.93
60417;BME280;46263;44.726;10.396;2022-08-02T03:30:43;100210.16;;;24.30;94.46
60417;BME280;46263;44.726;10.396;2022-08-02T03:33:08;100212.41;;;24.45;94.15
60417;BME280;46263;44.726;10.396;2022-08-02T03:35:34;100215.16;;;24.37;96.73
60417;BME280;46263;44.726;10.396;2022-08-02T03:38:00;100212.28;;;24.25;99.47
60417;BME280;46263;44.726;10.396;2022-08-02T03:40:26;100218.69;;;24.11;100.00
60417;BME280;46263;44.726;10.396;2022-08-02T03:42:52;100219.66;;;24.24;100.00
60417;BME280;46263;44.726;10.396;2022-08-02T03:45:18;100222.75;;;24.31;100.00
60417;BME280;46263;44.726;10.396;2022-08-02T03:47:43;100231.13;;;24.26;100.00
60417;BME280;46263;44.726;10.396;2022-08-02T03:50:10;100230.31;;;24.26;100.00
60417;BME280;46263;44.726;10.396;2022-08-02T03:52:39;100232.59;;;24.23;100.00
60417;BME280;46263;44.726;10.396;2022-08-02T03:55:06;100232.09;;;24.21;100.00
60417;BME280;46263;44.726;10.396;2022-08-02T03:57:31;100242.41;;;24.07;100.00
60417;BME280;46263;44.726;10.396;2022-08-02T03:59:57;100248.88;;;24.20;100.00
60417;BME280;46263;44.726;10.396;2022-08-02T04:02:22;100244.03;;;24.08;100.00
60417;BME280;46263;44.726;10.396;2022-08-02T04:04:47;100251.75;;;23.89;100.00
60417;BME280;46263;44.726;10.396;2022-08-02T04:07:12;100259.78;;;23.85;100.00
60417;BME280;46263;44.726;10.396;2022-08-02T04:09:38;100255.78;;;24.00;100.00
60417;BME280;46263;44.726;10.396;2022-08-02T04:12:03;100266.44;;;23.93;100.00
60417;BME280;46263;44.726;10.396;2022-08-02T04:14:28;100269.28;;;23.79;100.00
60417;BME280;46263;44.726;10.396;2022-08-02T04:16:55;100285.25;;;23.77;100.00
60417;BME280;46263;44.726;10.396;2022-08-02T04:21:58;100288.72;;;23.92;100.00
60417;BME280;46263;44.726;10.396;2022-08-02T04:24:26;100284.97;;;23.87;100.00
60417;BME280;46263;44.726;10.396;2022-08-02T04:26:53;100296.28;;;23.86;100.00
60417;BME280;46263;44.726;10.396;2022-08-02T04:29:18;100304.66;;;23.81;100.00
60417;BME280;46263;44.726;10.396;2022-08-02T04:31:44;100304.50;;;23.86;100.00
60417;BME280;46263;44.726;10.396;2022-08-02T04:34:09;100319.41;;;24.02;100.00
60417;BME280;46263;44.726;10.396;2022-08-02T04:36:36;100314.41;;;23.96;100.00
60417;BME280;46263;44.726;10.396;2022-08-02T04:39:02;100321.06;;;23.72;100.00
60417;BME280;46263;44.726;10.396;2022-08-02T04:41:37;100320.19;;;23.54;100.00
60417;BME280;46263;44.726;10.396;2022-08-02T04:44:02;100332.53;;;23.74;100.00
60417;BME280;46263;44.726;10.396;2022-08-02T04:46:28;100343.91;;;23.90;100.00
60417;BME280;46263;44.726;10.396;2022-08-02T04:48:53;100348.28;;;23.91;100.00
60417;BME280;46263;44.726;10.396;2022-08-02T04:51:18;100367.69;;;23.95;100.00
60417;BME280;46263;44.726;10.396;2022-08-02T04:53:43;100360.44;;;24.07;100.00
60417;BME280;46263;44.726;10.396;2022-08-02T04:56:09;100368.94;;;23.88;100.00
60417;BME280;46263;44.726;10.396;2022-08-02T04:58:35;100373.19;;;24.03;97.47
60417;BME280;46263;44.726;10.396;2022-08-02T05:01:01;100386.56;;;23.96;95.56
60417;BME280;46263;44.726;10.396;2022-08-02T05:03:26;100392.38;;;23.95;94.63
60417;BME280;46263;44.726;10.396;2022-08-02T05:05:51;100397.69;;;24.00;93.62
60417;BME280;46263;44.726;10.396;2022-08-02T05:08:16;100399.19;;;24.06;93.30
60417;BME280;46263;44.726;10.396;2022-08-02T05:10:42;100401.78;;;24.11;93.46
60417;BME280;46263;44.726;10.396;2022-08-02T05:13:07;100405.88;;;24.22;93.24
60417;BME280;46263;44.726;10.396;2022-08-02T05:15:32;100411.78;;;24.07;93.73
60417;BME280;46263;44.726;10.396;2022-08-02T05:17:58;100418.66;;;24.27;93.31
60417;BME280;46263;44.726;10.396;2022-08-02T05:20:23;100420.31;;;24.36;92.27
60417;BME280;46263;44.726;10.396;2022-08-02T05:22:48;100426.13;;;24.35;93.78
60417;BME280;46263;44.726;10.396;2022-08-02T05:25:14;100430.53;;;24.44;93.37
60417;BME280;46263;44.726;10.396;2022-08-02T05:27:39;100438.25;;;24.25;94.97
60417;BME280;46263;44.726;10.396;2022-08-02T05:30:05;100442.50;;;24.48;93.54
60417;BME280;46263;44.726;10.396;2022-08-02T05:32:30;100456.84;;;24.37;94.72
60417;BME280;46263;44.726;10.396;2022-08-02T05:34:56;100453.78;;;24.38;93.99
60417;BME280;46263;44.726;10.396;2022-08-02T05:37:21;100456.25;;;24.48;93.15
60417;BME280;46263;44.726;10.396;2022-08-02T05:39:46;100450.75;;;24.57;92.92
60417;BME280;46263;44.726;10.396;2022-08-02T05:42:11;100462.41;;;24.63;92.11
60417;BME280;46263;44.726;10.396;2022-08-02T05:44:37;100471.94;;;24.56;92.81
60417;BME280;46263;44.726;10.396;2022-08-02T05:47:02;100473.72;;;24.52;92.20
60417;BME280;46263;44.726;10.396;2022-08-02T05:49:27;100482.28;;;24.20;93.96
60417;BME280;46263;44.726;10.396;2022-08-02T05:52:03;100479.44;;;24.34;94.49
60417;BME280;46263;44.726;10.396;2022-08-02T05:54:39;100492.50;;;24.28;94.24
60417;BME280;46263;44.726;10.396;2022-08-02T06:04:53;100517.81;;;24.56;89.84
60417;BME280;46263;44.726;10.396;2022-08-02T06:07:20;100521.13;;;24.75;89.10
60417;BME280;46263;44.726;10.396;2022-08-02T06:09:47;100527.59;;;24.71;88.47
60417;BME280;46263;44.726;10.396;2022-08-02T06:12:13;100531.91;;;24.63;89.15
60417;BME280;46263;44.726;10.396;2022-08-02T06:14:40;100540.84;;;24.69;87.28
60417;BME280;46263;44.726;10.396;2022-08-02T06:17:05;100546.41;;;24.46;89.08
60417;BME280;46263;44.726;10.396;2022-08-02T06:19:35;100536.28;;;24.64;88.07
60417;BME280;46263;44.726;10.396;2022-08-02T06:22:01;100522.50;;;24.47;87.13
60417;BME280;46263;44.726;10.396;2022-08-02T06:24:41;100512.13;;;24.44;86.82
60417;BME280;46263;44.726;10.396;2022-08-02T06:27:08;100518.50;;;24.62;86.02
60417;BME280;46263;44.726;10.396;2022-08-02T06:29:33;100514.75;;;24.57;85.19
60417;BME280;46263;44.726;10.396;2022-08-02T06:32:00;100519.94;;;24.59;84.05
60417;BME280;46263;44.726;10.396;2022-08-02T06:34:26;100517.75;;;24.78;83.85
60417;BME280;46263;44.726;10.396;2022-08-02T06:36:56;100520.28;;;24.66;83.72
60417;BME280;46263;44.726;10.396;2022-08-02T06:39:34;100519.44;;;24.57;82.43
60417;BME280;46263;44.726;10.396;2022-08-02T06:42:02;100517.66;;;24.52;81.88
60417;BME280;46263;44.726;10.396;2022-08-02T06:44:31;100516.38;;;24.50;83.89
60417;BME280;46263;44.726;10.396;2022-08-02T06:46:56;100525.94;;;24.61;83.33
60417;BME280;46263;44.726;10.396;2022-08-02T06:49:22;100525.47;;;24.68;84.42
60417;BME280;46263;44.726;10.396;2022-08-02T06:51:47;100534.31;;;24.56;83.68
60417;BME280;46263;44.726;10.396;2022-08-02T06:54:12;100535.03;;;24.70;82.48
60417;BME280;46263;44.726;10.396;2022-08-02T06:56:37;100538.03;;;24.60;82.96
60417;BME280;46263;44.726;10.396;2022-08-02T06:59:03;100545.91;;;24.92;80.98
60417;BME280;46263;44.726;10.396;2022-08-02T07:01:28;100529.66;;;25.13;80.56
60417;BME280;46263;44.726;10.396;2022-08-02T07:03:53;100528.13;;;24.81;82.91
60417;BME280;46263;44.726;10.396;2022-08-02T07:06:19;100529.25;;;24.89;82.63
60417;BME280;46263;44.726;10.396;2022-08-02T07:08:44;100515.66;;;24.75;82.43
60417;BME280;46263;44.726;10.396;2022-08-02T07:11:09;100524.56;;;24.81;80.33
60417;BME280;46263;44.726;10.396;2022-08-02T07:13:36;100522.38;;;25.00;82.15
60417;BME280;46263;44.726;10.396;2022-08-02T07:16:01;100528.25;;;25.33;80.93
60417;BME280;46263;44.726;10.396;2022-08-02T07:18:27;100529.38;;;25.41;82.66
60417;BME280;46263;44.726;10.396;2022-08-02T07:20:52;100533.25;;;25.31;83.73
60417;BME280;46263;44.726;10.396;2022-08-02T07:23:18;100526.94;;;25.56;82.05
60417;BME280;46263;44.726;10.396;2022-08-02T07:25:43;100532.28;;;25.53;82.69
60417;BME280;46263;44.726;10.396;2022-08-02T07:28:09;100530.16;;;25.41;84.84
60417;BME280;46263;44.726;10.396;2022-08-02T07:30:34;100536.16;;;25.52;84.18
60417;BME280;46263;44.726;10.396;2022-08-02T07:33:00;100536.81;;;26.01;80.18
60417;BME280;46263;44.726;10.396;2022-08-02T07:35:26;100539.59;;;25.75;83.42
60417;BME280;46263;44.726;10.396;2022-08-02T07:37:51;100549.16;;;25.95;81.55
60417;BME280;46263;44.726;10.396;2022-08-02T07:40:18;100542.31;;;26.01;80.21
60417;BME280;46263;44.726;10.396;2022-08-02T07:42:44;100539.59;;;25.92;79.77
60417;BME280;46263;44.726;10.396;2022-08-02T07:45:09;100536.94;;;26.13;79.58
60417;BME280;46263;44.726;10.396;2022-08-02T07:47:38;100540.34;;;26.27;80.30
60417;BME280;46263;44.726;10.396;2022-08-02T07:50:04;100540.03;;;26.11;78.33
60417;BME280;46263;44.726;10.396;2022-08-02T07:52:29;100533.88;;;26.06;77.91
60417;BME280;46263;44.726;10.396;2022-08-02T07:54:55;100532.47;;;25.82;78.40
60417;BME280;46263;44.726;10.396;2022-08-02T07:57:21;100526.16;;;25.90;77.30
60417;BME280;46263;44.726;10.396;2022-08-02T07:59:46;100532.78;;;25.98;77.99
60417;BME280;46263;44.726;10.396;2022-08-02T08:02:12;100531.13;;;26.06;75.77
60417;BME280;46263;44.726;10.396;2022-08-02T08:04:38;100529.66;;;26.17;75.26
60417;BME280;46263;44.726;10.396;2022-08-02T08:07:04;100524.63;;;26.10;76.53
60417;BME280;46263;44.726;10.396;2022-08-02T08:09:30;100518.16;;;26.15;73.12
60417;BME280;46263;44.726;10.396;2022-08-02T08:11:55;100521.88;;;26.19;72.68
60417;BME280;46263;44.726;10.396;2022-08-02T08:14:20;100512.47;;;26.20;70.25
60417;BME280;46263;44.726;10.396;2022-08-02T08:16:46;100512.66;;;26.06;69.59
60417;BME280;46263;44.726;10.396;2022-08-02T08:19:11;100509.88;;;26.23;70.00
60417;BME280;46263;44.726;10.396;2022-08-02T08:21:36;100507.13;;;26.23;71.32
60417;BME280;46263;44.726;10.396;2022-08-02T08:24:02;100507.72;;;26.38;69.62
60417;BME280;46263;44.726;10.396;2022-08-02T08:26:28;100497.56;;;26.21;68.35
60417;BME280;46263;44.726;10.396;2022-08-02T08:28:53;100498.53;;;26.16;65.89
60417;BME280;46263;44.726;10.396;2022-08-02T08:31:19;100499.53;;;26.03;65.54
60417;BME280;46263;44.726;10.396;2022-08-02T08:33:44;100483.44;;;26.31;64.35
60417;BME280;46263;44.726;10.396;2022-08-02T08:36:11;100494.09;;;26.50;63.69
60417;BME280;46263;44.726;10.396;2022-08-02T08:38:36;100487.63;;;26.37;62.98
60417;BME280;46263;44.726;10.396;2022-08-02T08:41:01;100489.97;;;26.18;62.14
60417;BME280;46263;44.726;10.396;2022-08-02T08:43:27;100487.53;;;26.16;62.53
60417;BME280;46263;44.726;10.396;2022-08-02T08:45:52;100490.19;;;26.51;62.42
60417;BME280;46263;44.726;10.396;2022-08-02T08:48:17;100485.75;;;26.58;60.78
60417;BME280;46263;44.726;10.396;2022-08-02T08:50:52;100474.03;;;26.70;60.55
60417;BME280;46263;44.726;10.396;2022-08-02T08:53:20;100475.75;;;26.83;57.33
60417;BME280;46263;44.726;10.396;2022-08-02T08:55:45;100477.13;;;26.89;58.90
60417;BME280;46263;44.726;10.396;2022-08-02T08:58:11;100476.47;;;27.22;57.14
60417;BME280;46263;44.726;10.396;2022-08-02T09:00:38;100480.78;;;27.32;57.66
60417;BME280;46263;44.726;10.396;2022-08-02T09:03:05;100481.84;;;27.39;58.87
60417;BME280;46263;44.726;10.396;2022-08-02T09:05:39;100478.53;;;27.25;58.05
60417;BME280;46263;44.726;10.396;2022-08-02T09:08:05;100484.63;;;27.39;58.41
60417;BME280;46263;44.726;10.396;2022-08-02T09:13:13;100478.88;;;27.44;56.20
60417;BME280;46263;44.726;10.396;2022-08-02T09:15:40;100482.13;;;27.67;55.98
60417;BME280;46263;44.726;10.396;2022-08-02T09:18:06;100480.41;;;27.75;54.70
60417;BME280;46263;44.726;10.396;2022-08-02T09:20:32;100480.72;;;28.06;53.69
60417;BME280;46263;44.726;10.396;2022-08-02T09:23:05;100471.41;;;28.11;52.17
60417;BME280;46263;44.726;10.396;2022-08-02T09:25:31;100476.94;;;28.11;52.16
60417;BME280;46263;44.726;10.396;2022-08-02T09:27:57;100481.88;;;28.05;52.50
60417;BME280;46263;44.726;10.396;2022-08-02T09:30:22;100471.69;;;28.30;52.37
60417;BME280;46263;44.726;10.396;2022-08-02T09:32:50;100472.41;;;28.27;53.29
60417;BME280;46263;44.726;10.396;2022-08-02T09:35:31;100464.09;;;28.51;52.59
60417;BME280;46263;44.726;10.396;2022-08-02T09:38:09;100468.25;;;28.58;50.29
60417;BME280;46263;44.726;10.396;2022-08-02T09:40:38;100467.78;;;28.80;50.00
60417;BME280;46263;44.726;10.396;2022-08-02T09:43:07;100464.56;;;28.78;53.02
60417;BME280;46263;44.726;10.396;2022-08-02T09:45:33;100469.84;;;28.95;50.38
60417;BME280;46263;44.726;10.396;2022-08-02T09:48:08;100467.66;;;28.88;52.58
60417;BME280;46263;44.726;10.396;2022-08-02T09:50:34;100462.25;;;28.92;51.88
60417;BME280;46263;44.726;10.396;2022-08-02T09:53:00;100464.09;;;28.76;51.97
60417;BME280;46263;44.726;10.396;2022-08-02T09:55:27;100463.72;;;29.02;51.15
60417;BME280;46263;44.726;10.396;2022-08-02T09:57:52;100462.91;;;29.13;49.51
60417;BME280;46263;44.726;10.396;2022-08-02T10:00:18;100456.28;;;29.18;49.76
60417;BME280;46263;44.726;10.396;2022-08-02T10:05:30;100444.38;;;29.42;49.92
60417;BME280;46263;44.726;10.396;2022-08-02T10:08:09;100446.09;;;29.34;50.27
60417;BME280;46263;44.726;10.396;2022-08-02T10:10:34;100447.50;;;29.28;49.79
60417;BME280;46263;44.726;10.396;2022-08-02T10:12:59;100446.13;;;29.22;47.04
60417;BME280;46263;44.726;10.396;2022-08-02T10:15:24;100439.81;;;29.21;48.64
60417;BME280;46263;44.726;10.396;2022-08-02T10:17:50;100432.69;;;29.48;49.89
60417;BME280;46263;44.726;10.396;2022-08-02T10:20:15;100435.97;;;29.66;49.27
60417;BME280;46263;44.726;10.396;2022-08-02T10:22:40;100419.97;;;29.75;49.71
60417;BME280;46263;44.726;10.396;2022-08-02T10:25:07;100423.25;;;30.25;47.12
60417;BME280;46263;44.726;10.396;2022-08-02T10:27:33;100429.75;;;30.32;47.19
60417;BME280;46263;44.726;10.396;2022-08-02T10:29:59;100417.16;;;30.35;43.67
60417;BME280;46263;44.726;10.396;2022-08-02T10:34:57;100411.47;;;30.78;44.17
60417;BME280;46263;44.726;10.396;2022-08-02T10:37:30;100407.44;;;30.76;43.25
60417;BME280;46263;44.726;10.396;2022-08-02T10:39:57;100409.09;;;30.45;44.12
60417;BME280;46263;44.726;10.396;2022-08-02T10:45:09;100407.69;;;30.86;42.33
60417;BME280;46263;44.726;10.396;2022-08-02T10:47:35;100408.94;;;31.28;42.34
60417;BME280;46263;44.726;10.396;2022-08-02T10:50:00;100404.72;;;31.34;41.93
60417;BME280;46263;44.726;10.396;2022-08-02T10:52:30;100408.50;;;31.06;43.13
60417;BME280;46263;44.726;10.396;2022-08-02T10:54:57;100412.59;;;31.70;43.17
60417;BME280;46263;44.726;10.396;2022-08-02T10:57:33;100410.97;;;31.69;42.20
60417;BME280;46263;44.726;10.396;2022-08-02T11:02:38;100406.53;;;31.87;41.79
60417;BME280;46263;44.726;10.396;2022-08-02T11:05:05;100411.38;;;32.40;39.69
60417;BME280;46263;44.726;10.396;2022-08-02T11:07:31;100399.63;;;32.01;40.06
60417;BME280;46263;44.726;10.396;2022-08-02T11:09:58;100409.72;;;32.35;40.00
60417;BME280;46263;44.726;10.396;2022-08-02T11:12:25;100392.63;;;32.86;40.29
60417;BME280;46263;44.726;10.396;2022-08-02T11:15:11;100397.81;;;32.61;39.58
60417;BME280;46263;44.726;10.396;2022-08-02T11:17:52;100394.31;;;32.68;39.76
60417;BME280;46263;44.726;10.396;2022-08-02T11:20:18;100395.88;;;33.25;38.56
60417;BME280;46263;44.726;10.396;2022-08-02T11:23:32;100382.19;;;32.79;37.56
60417;BME280;46263;44.726;10.396;2022-08-02T11:25:47;100385.53;;;32.66;36.89
60417;BME280;46263;44.726;10.396;2022-08-02T11:28:14;100379.09;;;33.18;39.42
60417;BME280;46263;44.726;10.396;2022-08-02T11:30:40;100378.78;;;32.93;37.76
60417;BME280;46263;44.726;10.396;2022-08-02T11:33:06;100374.75;;;32.87;36.19
60417;BME280;46263;44.726;10.396;2022-08-02T11:35:35;100369.97;;;33.21;36.98
60417;BME280;46263;44.726;10.396;2022-08-02T11:38:34;100372.47;;;32.70;37.65
60417;BME280;46263;44.726;10.396;2022-08-02T11:40:53;100363.72;;;33.28;37.49
60417;BME280;46263;44.726;10.396;2022-08-02T11:43:20;100368.34;;;33.16;36.62
60417;BME280;46263;44.726;10.396;2022-08-02T11:45:46;100365.38;;;33.02;36.17
60417;BME280;46263;44.726;10.396;2022-08-02T11:48:11;100375.06;;;33.45;37.19
60417;BME280;46263;44.726;10.396;2022-08-02T11:50:37;100369.81;;;33.40;37.85
60417;BME280;46263;44.726;10.396;2022-08-02T11:53:11;100366.81;;;32.89;36.97
60417;BME280;46263;44.726;10.396;2022-08-02T11:55:36;100369.44;;;33.42;35.47
60417;BME280;46263;44.726;10.396;2022-08-02T11:58:08;100364.03;;;33.60;36.24
60417;BME280;46263;44.726;10.396;2022-08-02T12:00:35;100361.94;;;33.46;37.83
60417;BME280;46263;44.726;10.396;2022-08-02T12:03:01;100356.41;;;33.53;37.80
60417;BME280;46263;44.726;10.396;2022-08-02T12:05:29;100365.84;;;33.78;36.13
60417;BME280;46263;44.726;10.396;2022-08-02T12:07:55;100361.63;;;33.99;35.18
60417;BME280;46263;44.726;10.396;2022-08-02T12:10:21;100352.81;;;33.49;35.47
60417;BME280;46263;44.726;10.396;2022-08-02T12:12:51;100350.22;;;33.30;36.17
60417;BME280;46263;44.726;10.396;2022-08-02T12:17:57;100348.25;;;33.71;34.76
60417;BME280;46263;44.726;10.396;2022-08-02T12:20:41;100349.38;;;33.66;35.07
60417;BME280;46263;44.726;10.396;2022-08-02T12:23:07;100347.03;;;34.16;35.38
60417;BME280;46263;44.726;10.396;2022-08-02T12:25:32;100344.81;;;33.88;34.66
60417;BME280;46263;44.726;10.396;2022-08-02T12:30:57;100353.84;;;33.34;35.69
60417;BME280;46263;44.726;10.396;2022-08-02T12:33:25;100346.56;;;34.10;36.12
60417;BME280;46263;44.726;10.396;2022-08-02T12:35:51;100348.03;;;34.45;34.72
60417;BME280;46263;44.726;10.396;2022-08-02T12:38:16;100348.72;;;34.93;34.22
60417;BME280;46263;44.726;10.396;2022-08-02T12:40:41;100351.56;;;34.35;34.28
60417;BME280;46263;44.726;10.396;2022-08-02T12:43:07;100343.88;;;34.83;34.02
60417;BME280;46263;44.726;10.396;2022-08-02T12:45:44;100335.03;;;34.77;33.07
60417;BME280;46263;44.726;10.396;2022-08-02T12:48:09;100332.41;;;35.13;33.48
60417;BME280;46263;44.726;10.396;2022-08-02T12:50:35;100340.28;;;34.20;33.98
60417;BME280;46263;44.726;10.396;2022-08-02T12:53:05;100326.06;;;34.33;33.57
60417;BME280;46263;44.726;10.396;2022-08-02T12:55:31;100327.84;;;34.76;33.75
60417;BME280;46263;44.726;10.396;2022-08-02T12:57:58;100324.50;;;34.42;33.82
60417;BME280;46263;44.726;10.396;2022-08-02T13:00:25;100327.84;;;34.73;33.13
60417;BME280;46263;44.726;10.396;2022-08-02T13:02:50;100321.97;;;34.96;32.80
60417;BME280;46263;44.726;10.396;2022-08-02T13:05:16;100330.91;;;35.47;32.27
60417;BME280;46263;44.726;10.396;2022-08-02T13:07:41;100317.22;;;35.03;33.40
60417;BME280;46263;44.726;10.396;2022-08-02T13:10:06;100321.16;;;34.88;32.38
60417;BME280;46263;44.726;10.396;2022-08-02T13:12:32;100322.41;;;35.05;32.37
60417;BME280;46263;44.726;10.396;2022-08-02T13:14:58;100322.94;;;35.60;31.09